sensor_id;sensor_type;location;lat;lon;timestamp;temperature;humidity
3626;DHT22;1827;50.534;8.316;2024-01-07T00:00:34;3.50;99.90
3626;DHT22;1827;50.534;8.316;2024-01-07T00:02:59;3.40;99.90
3626;DHT22;1827;50.534;8.316;2024-01-07T00:05:25;3.40;99.90
3626;DHT22;1827;50.534;8.316;2024-01-07T00:07:51;3.40;99.90
3626;DHT22;1827;50.534;8.316;2024-01-07T00:10:17;3.50;99.90
3626;DHT22;1827;50.534;8.316;2024-01-07T00:12:43;3.50;99.90
3626;DHT22;1827;50.534;8.316;2024-01-07T00:15:09;3.50;99.90
3626;DHT22;1827;50.534;8.316;2024-01-07T00:17:34;3.40;99.90
3626;DHT22;1827;50.534;8.316;2024-01-07T00:20:00;3.40;99.90
3626;DHT22;1827;50.534;8.316;2024-01-07T00:22:26;3.50;99.90
3626;DHT22;1827;50.534;8.316;2024-01-07T00:24:51;3.50;99.90
3626;DHT22;1827;50.534;8.316;2024-01-07T00:27:17;3.60;99.90
3626;DHT22;1827;50.534;8.316;2024-01-07T00:29:42;3.50;99.90
3626;DHT22;1827;50.534;8.316;2024-01-07T00:32:08;3.50;99.90
3626;DHT22;1827;50.534;8.316;2024-01-07T00:34:36;3.50;99.90
3626;DHT22;1827;50.534;8.316;2024-01-07T00:37:02;3.40;99.90
3626;DHT22;1827;50.534;8.316;2024-01-07T00:39:27;3.50;99.90
3626;DHT22;1827;50.534;8.316;2024-01-07T00:41:53;3.50;99.90
3626;DHT22;1827;50.534;8.316;2024-01-07T00:44:18;3.50;99.90
3626;DHT22;1827;50.534;8.316;2024-01-07T00:46:44;3.40;99.90
3626;DHT22;1827;50.534;8.316;2024-01-07T00:49:10;3.40;99.90
3626;DHT22;1827;50.534;8.316;2024-01-07T00:51:35;3.40;99.90
3626;DHT22;1827;50.534;8.316;2024-01-07T00:54:01;3.40;99.90
3626;DHT22;1827;50.534;8.316;2024-01-07T00:56:27;3.40;99.90
3626;DHT22;1827;50.534;8.316;2024-01-07T00:58:53;3.30;99.90
3626;DHT22;1827;50.534;8.316;2024-01-07T01:01:18;3.40;99.90
3626;DHT22;1827;50.534;8.316;2024-01-07T01:03:44;3.40;99.90
3626;DHT22;1827;50.534;8.316;2024-01-07T01:06:09;3.50;99.90
3626;DHT22;1827;50.534;8.316;2024-01-07T01:08:35;3.50;99.90
3626;DHT22;1827;50.534;8.316;2024-01-07T01:11:01;3.60;99.90
3626;DHT22;1827;50.534;8.316;2024-01-07T01:13:27;3.50;99.90
3626;DHT22;1827;50.534;8.316;2024-01-07T01:15:53;3.40;99.90
3626;DHT22;1827;50.534;8.316;2024-01-07T01:18:20;3.40;99.90
3626;DHT22;1827;50.534;8.316;2024-01-07T01:20:46;3.50;99.90
3626;DHT22;1827;50.534;8.316;2024-01-07T01:23:12;3.50;99.90
3626;DHT22;1827;50.534;8.316;2024-01-07T01:25:37;3.50;99.90
3626;DHT22;1827;50.534;8.316;2024-01-07T01:28:05;3.40;99.90
3626;DHT22;1827;50.534;8.316;2024-01-07T01:30:32;3.50;99.90
3626;DHT22;1827;50.534;8.316;2024-01-07T01:32:58;3.40;99.90
3626;DHT22;1827;50.534;8.316;2024-01-07T01:35:23;3.40;99.90
3626;DHT22;1827;50.534;8.316;2024-01-07T01:37:49;3.40;99.90
3626;DHT22;1827;50.534;8.316;2024-01-07T01:40:16;3.40;99.90
3626;DHT22;1827;50.534;8.316;2024-01-07T01:42:45;3.40;99.90
3626;DHT22;1827;50.534;8.316;2024-01-07T01:45:11;3.40;99.90
3626;DHT22;1827;50.534;8.316;2024-01-07T01:47:37;3.30;99.90
3626;DHT22;1827;50.534;8.316;2024-01-07T01:50:03;3.30;99.90
3626;DHT22;1827;50.534;8.316;2024-01-07T01:52:28;3.30;99.90
3626;DHT22;1827;50.534;8.316;2024-01-07T01:54:54;3.30;99.90
3626;DHT22;1827;50.534;8.316;2024-01-07T01:57:20;3.30;99.90
3626;DHT22;1827;50.534;8.316;2024-01-07T01:59:48;3.40;99.90
3626;DHT22;1827;50.534;8.316;2024-01-07T02:02:13;3.40;99.90
3626;DHT22;1827;50.534;8.316;2024-01-07T02:04:39;3.40;99.90
3626;DHT22;1827;50.534;8.316;2024-01-07T02:07:05;3.50;99.90
3626;DHT22;1827;50.534;8.316;2024-01-07T02:09:31;3.30;99.90
3626;DHT22;1827;50.534;8.316;2024-01-07T02:12:03;3.20;99.90
3626;DHT22;1827;50.534;8.316;2024-01-07T02:14:29;3.10;99.90
3626;DHT22;1827;50.534;8.316;2024-01-07T02:16:55;3.00;99.90
3626;DHT22;1827;50.534;8.316;2024-01-07T02:19:22;3.10;99.90
3626;DHT22;1827;50.534;8.316;2024-01-07T02:21:49;2.90;1.00
3626;DHT22;1827;50.534;8.316;2024-01-07T02:24:18;2.90;1.00
3626;DHT22;1827;50.534;8.316;2024-01-07T02:26:44;2.90;1.00
3626;DHT22;1827;50.534;8.316;2024-01-07T02:29:10;3.00;1.00
3626;DHT22;1827;50.534;8.316;2024-01-07T02:31:35;2.90;1.00
3626;DHT22;1827;50.534;8.316;2024-01-07T02:34:01;3.00;1.00
3626;DHT22;1827;50.534;8.316;2024-01-07T02:36:26;3.00;1.00
3626;DHT22;1827;50.534;8.316;2024-01-07T02:38:52;3.00;1.00
3626;DHT22;1827;50.534;8.316;2024-01-07T02:41:17;3.00;1.00
3626;DHT22;1827;50.534;8.316;2024-01-07T02:43:43;3.00;1.00
3626;DHT22;1827;50.534;8.316;2024-01-07T02:46:09;3.00;1.00
3626;DHT22;1827;50.534;8.316;2024-01-07T02:48:36;3.00;1.00
3626;DHT22;1827;50.534;8.316;2024-01-07T02:51:02;3.00;1.00
3626;DHT22;1827;50.534;8.316;2024-01-07T02:53:29;3.00;1.00
3626;DHT22;1827;50.534;8.316;2024-01-07T02:55:54;3.00;1.00
3626;DHT22;1827;50.534;8.316;2024-01-07T02:58:20;3.10;1.00
3626;DHT22;1827;50.534;8.316;2024-01-07T03:00:45;3.10;1.00
3626;DHT22;1827;50.534;8.316;2024-01-07T03:03:11;3.10;1.00
3626;DHT22;1827;50.534;8.316;2024-01-07T03:05:36;3.10;1.00
3626;DHT22;1827;50.534;8.316;2024-01-07T03:08:02;3.10;1.00
3626;DHT22;1827;50.534;8.316;2024-01-07T03:10:27;3.10;1.00
3626;DHT22;1827;50.534;8.316;2024-01-07T03:12:53;3.00;1.00
3626;DHT22;1827;50.534;8.316;2024-01-07T03:15:18;3.00;1.00
3626;DHT22;1827;50.534;8.316;2024-01-07T03:17:44;3.00;1.00
3626;DHT22;1827;50.534;8.316;2024-01-07T03:20:10;3.00;1.00
3626;DHT22;1827;50.534;8.316;2024-01-07T03:22:36;3.00;1.00
3626;DHT22;1827;50.534;8.316;2024-01-07T03:25:02;3.00;1.00
3626;DHT22;1827;50.534;8.316;2024-01-07T03:27:27;2.90;1.00
3626;DHT22;1827;50.534;8.316;2024-01-07T03:29:53;2.90;1.00
3626;DHT22;1827;50.534;8.316;2024-01-07T03:32:19;2.90;1.00
3626;DHT22;1827;50.534;8.316;2024-01-07T03:34:45;2.90;1.00
3626;DHT22;1827;50.534;8.316;2024-01-07T03:37:10;2.90;1.00
3626;DHT22;1827;50.534;8.316;2024-01-07T03:39:36;2.90;1.00
3626;DHT22;1827;50.534;8.316;2024-01-07T03:42:01;2.90;1.00
3626;DHT22;1827;50.534;8.316;2024-01-07T03:44:27;2.90;1.00
3626;DHT22;1827;50.534;8.316;2024-01-07T03:46:53;2.90;1.00
3626;DHT22;1827;50.534;8.316;2024-01-07T03:49:19;2.90;1.00
3626;DHT22;1827;50.534;8.316;2024-01-07T03:51:44;3.00;1.00
3626;DHT22;1827;50.534;8.316;2024-01-07T03:54:10;2.90;1.00
3626;DHT22;1827;50.534;8.316;2024-01-07T03:56:35;2.90;1.00
3626;DHT22;1827;50.534;8.316;2024-01-07T03:59:01;2.90;1.00
3626;DHT22;1827;50.534;8.316;2024-01-07T04:01:27;2.90;1.00
3626;DHT22;1827;50.534;8.316;2024-01-07T04:03:53;2.90;1.00
3626;DHT22;1827;50.534;8.316;2024-01-07T04:06:18;2.90;1.00
3626;DHT22;1827;50.534;8.316;2024-01-07T04:08:44;2.90;1.00
3626;DHT22;1827;50.534;8.316;2024-01-07T04:11:10;2.90;1.00
3626;DHT22;1827;50.534;8.316;2024-01-07T04:13:37;2.90;1.00
3626;DHT22;1827;50.534;8.316;2024-01-07T04:16:02;2.90;1.00
3626;DHT22;1827;50.534;8.316;2024-01-07T04:18:28;2.90;1.00
3626;DHT22;1827;50.534;8.316;2024-01-07T04:20:54;2.90;1.00
3626;DHT22;1827;50.534;8.316;2024-01-07T04:23:19;2.90;1.00
3626;DHT22;1827;50.534;8.316;2024-01-07T04:25:48;2.90;1.00
3626;DHT22;1827;50.534;8.316;2024-01-07T04:28:14;2.80;1.00
3626;DHT22;1827;50.534;8.316;2024-01-07T04:30:39;2.90;1.00
3626;DHT22;1827;50.534;8.316;2024-01-07T04:33:05;2.90;1.00
3626;DHT22;1827;50.534;8.316;2024-01-07T04:35:30;2.90;1.00
3626;DHT22;1827;50.534;8.316;2024-01-07T04:37:56;2.80;1.00
3626;DHT22;1827;50.534;8.316;2024-01-07T04:40:22;2.80;1.00
3626;DHT22;1827;50.534;8.316;2024-01-07T04:42:47;2.90;1.00
3626;DHT22;1827;50.534;8.316;2024-01-07T04:45:13;2.80;1.00
3626;DHT22;1827;50.534;8.316;2024-01-07T04:47:38;2.80;1.00
3626;DHT22;1827;50.534;8.316;2024-01-07T04:50:04;2.80;1.00
3626;DHT22;1827;50.534;8.316;2024-01-07T04:52:30;2.80;1.00
3626;DHT22;1827;50.534;8.316;2024-01-07T04:54:55;2.80;1.00
3626;DHT22;1827;50.534;8.316;2024-01-07T04:57:21;2.80;1.00
3626;DHT22;1827;50.534;8.316;2024-01-07T04:59:47;2.80;1.00
3626;DHT22;1827;50.534;8.316;2024-01-07T05:02:13;2.80;1.00
3626;DHT22;1827;50.534;8.316;2024-01-07T05:04:39;2.80;1.00
3626;DHT22;1827;50.534;8.316;2024-01-07T05:07:05;2.90;1.00
3626;DHT22;1827;50.534;8.316;2024-01-07T05:09:31;2.90;1.00
3626;DHT22;1827;50.534;8.316;2024-01-07T05:11:57;2.80;1.00
3626;DHT22;1827;50.534;8.316;2024-01-07T05:14:23;2.80;1.00
3626;DHT22;1827;50.534;8.316;2024-01-07T05:16:48;2.80;1.00
3626;DHT22;1827;50.534;8.316;2024-01-07T05:19:14;2.80;1.00
3626;DHT22;1827;50.534;8.316;2024-01-07T05:21:40;2.80;1.00
3626;DHT22;1827;50.534;8.316;2024-01-07T05:24:05;2.80;1.00
3626;DHT22;1827;50.534;8.316;2024-01-07T05:26:37;2.80;1.00
3626;DHT22;1827;50.534;8.316;2024-01-07T05:29:04;2.80;1.00
3626;DHT22;1827;50.534;8.316;2024-01-07T05:31:29;2.80;1.00
3626;DHT22;1827;50.534;8.316;2024-01-07T05:33:55;2.70;1.00
3626;DHT22;1827;50.534;8.316;2024-01-07T05:36:20;2.80;1.00
3626;DHT22;1827;50.534;8.316;2024-01-07T05:38:47;2.70;1.00
3626;DHT22;1827;50.534;8.316;2024-01-07T05:41:13;2.70;1.00
3626;DHT22;1827;50.534;8.316;2024-01-07T05:43:40;2.70;1.00
3626;DHT22;1827;50.534;8.316;2024-01-07T05:46:05;2.60;1.00
3626;DHT22;1827;50.534;8.316;2024-01-07T05:48:41;2.60;1.00
3626;DHT22;1827;50.534;8.316;2024-01-07T05:51:08;2.60;1.00
3626;DHT22;1827;50.534;8.316;2024-01-07T05:53:34;2.60;1.00
3626;DHT22;1827;50.534;8.316;2024-01-07T05:56:00;2.60;1.00
3626;DHT22;1827;50.534;8.316;2024-01-07T05:58:25;2.60;1.00
3626;DHT22;1827;50.534;8.316;2024-01-07T06:00:51;2.60;1.00
3626;DHT22;1827;50.534;8.316;2024-01-07T06:03:18;2.50;1.00
3626;DHT22;1827;50.534;8.316;2024-01-07T06:05:44;2.50;1.00
3626;DHT22;1827;50.534;8.316;2024-01-07T06:08:10;2.50;1.00
3626;DHT22;1827;50.534;8.316;2024-01-07T06:10:35;2.50;1.00
3626;DHT22;1827;50.534;8.316;2024-01-07T06:13:01;2.50;1.00
3626;DHT22;1827;50.534;8.316;2024-01-07T06:15:28;2.50;1.00
3626;DHT22;1827;50.534;8.316;2024-01-07T06:17:54;2.50;1.00
3626;DHT22;1827;50.534;8.316;2024-01-07T06:20:20;2.50;1.00
3626;DHT22;1827;50.534;8.316;2024-01-07T06:22:46;2.40;1.00
3626;DHT22;1827;50.534;8.316;2024-01-07T06:25:11;2.40;1.00
3626;DHT22;1827;50.534;8.316;2024-01-07T06:27:40;2.40;1.00
3626;DHT22;1827;50.534;8.316;2024-01-07T06:30:07;2.40;1.00
3626;DHT22;1827;50.534;8.316;2024-01-07T06:32:33;2.40;1.00
3626;DHT22;1827;50.534;8.316;2024-01-07T06:34:59;2.40;1.00
3626;DHT22;1827;50.534;8.316;2024-01-07T06:37:24;2.40;1.00
3626;DHT22;1827;50.534;8.316;2024-01-07T06:39:50;2.40;1.00
3626;DHT22;1827;50.534;8.316;2024-01-07T06:42:16;2.40;1.00
3626;DHT22;1827;50.534;8.316;2024-01-07T06:44:42;2.40;1.00
3626;DHT22;1827;50.534;8.316;2024-01-07T06:47:07;2.30;4.40
3626;DHT22;1827;50.534;8.316;2024-01-07T06:49:33;2.30;8.40
3626;DHT22;1827;50.534;8.316;2024-01-07T06:51:58;2.30;27.90
3626;DHT22;1827;50.534;8.316;2024-01-07T06:54:24;2.40;51.70
3626;DHT22;1827;50.534;8.316;2024-01-07T06:56:50;2.40;31.40
3626;DHT22;1827;50.534;8.316;2024-01-07T06:59:16;2.40;10.10
3626;DHT22;1827;50.534;8.316;2024-01-07T07:01:41;2.40;1.00
3626;DHT22;1827;50.534;8.316;2024-01-07T07:04:07;2.40;1.00
3626;DHT22;1827;50.534;8.316;2024-01-07T07:06:32;2.40;1.00
3626;DHT22;1827;50.534;8.316;2024-01-07T07:08:58;2.40;1.00
3626;DHT22;1827;50.534;8.316;2024-01-07T07:11:24;2.40;1.00
3626;DHT22;1827;50.534;8.316;2024-01-07T07:13:49;2.40;1.00
3626;DHT22;1827;50.534;8.316;2024-01-07T07:16:15;2.50;1.00
3626;DHT22;1827;50.534;8.316;2024-01-07T07:18:40;2.50;1.00
3626;DHT22;1827;50.534;8.316;2024-01-07T07:21:06;2.50;1.00
3626;DHT22;1827;50.534;8.316;2024-01-07T07:23:32;2.50;1.00
3626;DHT22;1827;50.534;8.316;2024-01-07T07:25:57;2.40;1.00
3626;DHT22;1827;50.534;8.316;2024-01-07T07:28:23;2.40;1.00
3626;DHT22;1827;50.534;8.316;2024-01-07T07:30:48;2.40;1.00
3626;DHT22;1827;50.534;8.316;2024-01-07T07:33:15;2.40;1.00
3626;DHT22;1827;50.534;8.316;2024-01-07T07:35:41;2.40;1.00
3626;DHT22;1827;50.534;8.316;2024-01-07T07:38:07;2.40;1.00
3626;DHT22;1827;50.534;8.316;2024-01-07T07:40:33;2.40;1.00
3626;DHT22;1827;50.534;8.316;2024-01-07T07:42:58;2.40;1.00
3626;DHT22;1827;50.534;8.316;2024-01-07T07:45:24;2.40;1.00
3626;DHT22;1827;50.534;8.316;2024-01-07T07:47:49;2.40;1.00
3626;DHT22;1827;50.534;8.316;2024-01-07T07:50:15;2.40;1.00
3626;DHT22;1827;50.534;8.316;2024-01-07T07:52:47;2.40;1.00
3626;DHT22;1827;50.534;8.316;2024-01-07T07:55:12;2.40;1.00
3626;DHT22;1827;50.534;8.316;2024-01-07T07:57:38;2.40;1.00
3626;DHT22;1827;50.534;8.316;2024-01-07T08:00:04;2.40;1.00
3626;DHT22;1827;50.534;8.316;2024-01-07T08:02:31;2.40;1.00
3626;DHT22;1827;50.534;8.316;2024-01-07T08:04:56;2.40;1.00
3626;DHT22;1827;50.534;8.316;2024-01-07T08:07:22;2.40;1.00
3626;DHT22;1827;50.534;8.316;2024-01-07T08:09:47;2.40;1.00
3626;DHT22;1827;50.534;8.316;2024-01-07T08:12:13;2.30;1.00
3626;DHT22;1827;50.534;8.316;2024-01-07T08:14:38;2.30;1.00
3626;DHT22;1827;50.534;8.316;2024-01-07T08:17:07;2.30;1.00
3626;DHT22;1827;50.534;8.316;2024-01-07T08:19:32;2.30;1.00
3626;DHT22;1827;50.534;8.316;2024-01-07T08:21:58;2.40;1.00
3626;DHT22;1827;50.534;8.316;2024-01-07T08:24:24;2.40;1.00
3626;DHT22;1827;50.534;8.316;2024-01-07T08:26:49;2.40;99.90
3626;DHT22;1827;50.534;8.316;2024-01-07T08:29:15;2.40;99.90
3626;DHT22;1827;50.534;8.316;2024-01-07T08:31:41;2.40;99.90
3626;DHT22;1827;50.534;8.316;2024-01-07T08:34:07;2.40;99.90
3626;DHT22;1827;50.534;8.316;2024-01-07T08:36:33;2.40;99.90
3626;DHT22;1827;50.534;8.316;2024-01-07T08:38:59;2.40;99.90
3626;DHT22;1827;50.534;8.316;2024-01-07T08:41:25;2.30;99.90
3626;DHT22;1827;50.534;8.316;2024-01-07T08:43:51;2.30;99.90
3626;DHT22;1827;50.534;8.316;2024-01-07T08:46:17;2.30;99.90
3626;DHT22;1827;50.534;8.316;2024-01-07T08:48:42;2.20;99.90
3626;DHT22;1827;50.534;8.316;2024-01-07T08:51:08;2.20;99.90
3626;DHT22;1827;50.534;8.316;2024-01-07T08:53:34;2.20;99.90
3626;DHT22;1827;50.534;8.316;2024-01-07T08:55:59;2.20;99.90
3626;DHT22;1827;50.534;8.316;2024-01-07T08:58:25;2.20;99.90
3626;DHT22;1827;50.534;8.316;2024-01-07T09:00:51;2.20;99.90
3626;DHT22;1827;50.534;8.316;2024-01-07T09:03:16;2.20;99.90
3626;DHT22;1827;50.534;8.316;2024-01-07T09:05:43;2.20;99.90
3626;DHT22;1827;50.534;8.316;2024-01-07T09:08:09;2.20;99.90
3626;DHT22;1827;50.534;8.316;2024-01-07T09:10:36;2.20;99.90
3626;DHT22;1827;50.534;8.316;2024-01-07T09:13:05;2.20;99.90
3626;DHT22;1827;50.534;8.316;2024-01-07T09:15:30;2.20;99.90
3626;DHT22;1827;50.534;8.316;2024-01-07T09:17:56;2.20;99.90
3626;DHT22;1827;50.534;8.316;2024-01-07T09:20:25;2.20;99.80
3626;DHT22;1827;50.534;8.316;2024-01-07T09:22:51;2.10;34.60
3626;DHT22;1827;50.534;8.316;2024-01-07T09:25:16;2.10;17.50
3626;DHT22;1827;50.534;8.316;2024-01-07T09:27:42;2.10;1.00
3626;DHT22;1827;50.534;8.316;2024-01-07T09:30:10;2.10;1.00
3626;DHT22;1827;50.534;8.316;2024-01-07T09:32:37;2.10;1.00
3626;DHT22;1827;50.534;8.316;2024-01-07T09:35:02;2.10;1.00
3626;DHT22;1827;50.534;8.316;2024-01-07T09:37:31;2.10;1.00
3626;DHT22;1827;50.534;8.316;2024-01-07T09:39:56;2.20;1.00
3626;DHT22;1827;50.534;8.316;2024-01-07T09:42:22;2.20;1.00
3626;DHT22;1827;50.534;8.316;2024-01-07T09:44:47;2.20;1.00
3626;DHT22;1827;50.534;8.316;2024-01-07T09:47:15;2.20;1.00
3626;DHT22;1827;50.534;8.316;2024-01-07T09:49:41;2.20;1.00
3626;DHT22;1827;50.534;8.316;2024-01-07T09:52:08;2.20;1.00
3626;DHT22;1827;50.534;8.316;2024-01-07T09:54:35;2.20;1.00
3626;DHT22;1827;50.534;8.316;2024-01-07T09:57:02;2.20;1.00
3626;DHT22;1827;50.534;8.316;2024-01-07T09:59:28;2.10;1.00
3626;DHT22;1827;50.534;8.316;2024-01-07T10:01:54;2.10;1.00
3626;DHT22;1827;50.534;8.316;2024-01-07T10:04:20;2.10;1.00
3626;DHT22;1827;50.534;8.316;2024-01-07T10:06:45;2.10;1.00
3626;DHT22;1827;50.534;8.316;2024-01-07T10:09:11;2.10;1.00
3626;DHT22;1827;50.534;8.316;2024-01-07T10:11:37;2.00;1.00
3626;DHT22;1827;50.534;8.316;2024-01-07T10:14:03;2.00;1.00
3626;DHT22;1827;50.534;8.316;2024-01-07T10:16:28;2.00;1.00
3626;DHT22;1827;50.534;8.316;2024-01-07T10:18:54;2.00;1.00
3626;DHT22;1827;50.534;8.316;2024-01-07T10:21:19;2.00;1.00
3626;DHT22;1827;50.534;8.316;2024-01-07T10:23:45;2.00;1.00
3626;DHT22;1827;50.534;8.316;2024-01-07T10:26:10;2.00;1.00
3626;DHT22;1827;50.534;8.316;2024-01-07T10:28:36;2.00;1.00
3626;DHT22;1827;50.534;8.316;2024-01-07T10:31:03;2.00;1.00
3626;DHT22;1827;50.534;8.316;2024-01-07T10:33:32;2.00;1.00
3626;DHT22;1827;50.534;8.316;2024-01-07T10:36:02;2.00;1.00
3626;DHT22;1827;50.534;8.316;2024-01-07T10:38:34;2.00;1.00
3626;DHT22;1827;50.534;8.316;2024-01-07T10:41:00;2.00;1.00
3626;DHT22;1827;50.534;8.316;2024-01-07T10:43:28;1.90;1.00
3626;DHT22;1827;50.534;8.316;2024-01-07T10:45:54;1.90;1.00
3626;DHT22;1827;50.534;8.316;2024-01-07T10:48:20;1.90;1.00
3626;DHT22;1827;50.534;8.316;2024-01-07T10:50:47;1.90;1.00
3626;DHT22;1827;50.534;8.316;2024-01-07T10:53:20;1.70;1.00
3626;DHT22;1827;50.534;8.316;2024-01-07T10:55:49;1.60;1.00
3626;DHT22;1827;50.534;8.316;2024-01-07T10:58:18;1.60;1.00
3626;DHT22;1827;50.534;8.316;2024-01-07T11:00:43;1.60;1.00
3626;DHT22;1827;50.534;8.316;2024-01-07T11:08:41;1.50;1.00
3626;DHT22;1827;50.534;8.316;2024-01-07T11:11:18;1.50;1.00
3626;DHT22;1827;50.534;8.316;2024-01-07T11:13:49;1.50;1.00
3626;DHT22;1827;50.534;8.316;2024-01-07T11:16:14;1.50;1.00
3626;DHT22;1827;50.534;8.316;2024-01-07T11:19:00;1.40;1.00
3626;DHT22;1827;50.534;8.316;2024-01-07T11:21:27;1.40;1.00
3626;DHT22;1827;50.534;8.316;2024-01-07T11:23:53;1.40;1.00
3626;DHT22;1827;50.534;8.316;2024-01-07T11:26:22;1.40;1.00
3626;DHT22;1827;50.534;8.316;2024-01-07T11:28:54;1.30;1.00
3626;DHT22;1827;50.534;8.316;2024-01-07T11:31:42;1.30;1.00
3626;DHT22;1827;50.534;8.316;2024-01-07T11:34:07;1.30;1.00
3626;DHT22;1827;50.534;8.316;2024-01-07T11:36:34;1.20;1.00
3626;DHT22;1827;50.534;8.316;2024-01-07T11:39:00;1.20;1.00
3626;DHT22;1827;50.534;8.316;2024-01-07T11:41:27;1.30;1.00
3626;DHT22;1827;50.534;8.316;2024-01-07T11:43:54;1.20;1.00
3626;DHT22;1827;50.534;8.316;2024-01-07T11:46:21;1.20;1.00
3626;DHT22;1827;50.534;8.316;2024-01-07T11:48:47;1.20;1.00
3626;DHT22;1827;50.534;8.316;2024-01-07T11:51:12;1.20;1.00
3626;DHT22;1827;50.534;8.316;2024-01-07T11:53:38;1.20;1.00
3626;DHT22;1827;50.534;8.316;2024-01-07T11:56:04;1.20;1.00
3626;DHT22;1827;50.534;8.316;2024-01-07T11:58:30;1.20;1.00
3626;DHT22;1827;50.534;8.316;2024-01-07T12:00:56;1.20;1.00
3626;DHT22;1827;50.534;8.316;2024-01-07T12:03:23;1.20;1.00
3626;DHT22;1827;50.534;8.316;2024-01-07T12:05:50;1.20;1.00
3626;DHT22;1827;50.534;8.316;2024-01-07T12:08:18;1.30;1.00
3626;DHT22;1827;50.534;8.316;2024-01-07T12:10:45;1.20;1.00
3626;DHT22;1827;50.534;8.316;2024-01-07T12:13:11;1.20;1.00
3626;DHT22;1827;50.534;8.316;2024-01-07T12:15:38;1.10;1.00
3626;DHT22;1827;50.534;8.316;2024-01-07T12:18:04;1.10;1.00
3626;DHT22;1827;50.534;8.316;2024-01-07T12:20:30;1.10;1.00
3626;DHT22;1827;50.534;8.316;2024-01-07T12:22:56;1.10;1.00
3626;DHT22;1827;50.534;8.316;2024-01-07T12:25:22;1.00;1.00
3626;DHT22;1827;50.534;8.316;2024-01-07T12:27:49;0.80;1.00
3626;DHT22;1827;50.534;8.316;2024-01-07T12:30:18;0.70;1.00
3626;DHT22;1827;50.534;8.316;2024-01-07T12:32:45;0.70;1.00
3626;DHT22;1827;50.534;8.316;2024-01-07T12:35:11;0.60;1.00
3626;DHT22;1827;50.534;8.316;2024-01-07T12:37:37;0.60;1.00
3626;DHT22;1827;50.534;8.316;2024-01-07T12:40:03;0.60;1.00
3626;DHT22;1827;50.534;8.316;2024-01-07T12:42:28;0.60;1.00
3626;DHT22;1827;50.534;8.316;2024-01-07T12:44:54;0.60;1.00
3626;DHT22;1827;50.534;8.316;2024-01-07T12:47:20;0.60;1.00
3626;DHT22;1827;50.534;8.316;2024-01-07T12:49:47;0.70;1.00
3626;DHT22;1827;50.534;8.316;2024-01-07T12:52:12;0.60;1.00
3626;DHT22;1827;50.534;8.316;2024-01-07T12:54:38;0.60;1.00
3626;DHT22;1827;50.534;8.316;2024-01-07T12:57:04;0.60;1.00
3626;DHT22;1827;50.534;8.316;2024-01-07T12:59:29;0.60;1.00
3626;DHT22;1827;50.534;8.316;2024-01-07T13:01:55;0.70;1.00
3626;DHT22;1827;50.534;8.316;2024-01-07T13:04:21;0.70;1.00
3626;DHT22;1827;50.534;8.316;2024-01-07T13:06:47;0.70;1.00
3626;DHT22;1827;50.534;8.316;2024-01-07T13:09:13;0.70;1.00
3626;DHT22;1827;50.534;8.316;2024-01-07T13:11:39;0.60;1.00
3626;DHT22;1827;50.534;8.316;2024-01-07T13:14:04;0.50;1.00
3626;DHT22;1827;50.534;8.316;2024-01-07T13:16:30;0.40;1.00
3626;DHT22;1827;50.534;8.316;2024-01-07T13:18:55;0.20;1.00
3626;DHT22;1827;50.534;8.316;2024-01-07T13:21:21;0.20;1.00
3626;DHT22;1827;50.534;8.316;2024-01-07T13:23:47;0.10;1.00
3626;DHT22;1827;50.534;8.316;2024-01-07T13:26:13;0.10;1.00
3626;DHT22;1827;50.534;8.316;2024-01-07T13:28:39;0.00;1.00
3626;DHT22;1827;50.534;8.316;2024-01-07T13:31:04;0.00;1.00
3626;DHT22;1827;50.534;8.316;2024-01-07T13:33:32;-0.20;1.00
3626;DHT22;1827;50.534;8.316;2024-01-07T13:35:57;-0.20;1.00
3626;DHT22;1827;50.534;8.316;2024-01-07T13:38:23;-0.20;1.00
3626;DHT22;1827;50.534;8.316;2024-01-07T13:40:49;-0.20;1.00
3626;DHT22;1827;50.534;8.316;2024-01-07T13:43:15;-0.20;1.00
3626;DHT22;1827;50.534;8.316;2024-01-07T13:45:41;-0.30;1.00
3626;DHT22;1827;50.534;8.316;2024-01-07T13:48:06;-0.40;1.00
3626;DHT22;1827;50.534;8.316;2024-01-07T13:50:33;-0.40;1.00
3626;DHT22;1827;50.534;8.316;2024-01-07T13:52:58;-0.40;1.00
3626;DHT22;1827;50.534;8.316;2024-01-07T13:55:24;-0.40;1.00
3626;DHT22;1827;50.534;8.316;2024-01-07T13:57:50;-0.30;1.00
3626;DHT22;1827;50.534;8.316;2024-01-07T14:00:16;-0.40;1.00
3626;DHT22;1827;50.534;8.316;2024-01-07T14:02:44;-0.40;1.00
3626;DHT22;1827;50.534;8.316;2024-01-07T14:05:11;-0.40;1.00
3626;DHT22;1827;50.534;8.316;2024-01-07T14:07:37;-0.50;1.00
3626;DHT22;1827;50.534;8.316;2024-01-07T14:10:06;-0.50;1.00
3626;DHT22;1827;50.534;8.316;2024-01-07T14:12:34;-0.50;1.00
3626;DHT22;1827;50.534;8.316;2024-01-07T14:14:59;-0.50;1.00
3626;DHT22;1827;50.534;8.316;2024-01-07T14:17:25;-0.50;1.00
3626;DHT22;1827;50.534;8.316;2024-01-07T14:19:51;-0.50;1.00
3626;DHT22;1827;50.534;8.316;2024-01-07T14:22:19;-0.60;1.00
3626;DHT22;1827;50.534;8.316;2024-01-07T14:24:45;-0.70;1.00
3626;DHT22;1827;50.534;8.316;2024-01-07T14:27:10;-0.70;1.00
3626;DHT22;1827;50.534;8.316;2024-01-07T14:29:36;-0.70;1.00
3626;DHT22;1827;50.534;8.316;2024-01-07T14:32:03;-0.70;1.00
3626;DHT22;1827;50.534;8.316;2024-01-07T14:34:29;-0.80;1.00
3626;DHT22;1827;50.534;8.316;2024-01-07T14:36:55;-0.80;1.00
3626;DHT22;1827;50.534;8.316;2024-01-07T14:39:21;-0.90;1.00
3626;DHT22;1827;50.534;8.316;2024-01-07T14:41:46;-0.90;1.00
3626;DHT22;1827;50.534;8.316;2024-01-07T14:44:12;-0.90;1.00
3626;DHT22;1827;50.534;8.316;2024-01-07T14:46:38;-0.90;1.00
3626;DHT22;1827;50.534;8.316;2024-01-07T14:49:04;-1.00;1.00
3626;DHT22;1827;50.534;8.316;2024-01-07T14:51:30;-1.00;1.00
3626;DHT22;1827;50.534;8.316;2024-01-07T14:53:59;-1.00;1.00
3626;DHT22;1827;50.534;8.316;2024-01-07T14:56:25;-1.00;1.00
3626;DHT22;1827;50.534;8.316;2024-01-07T14:58:50;-1.00;1.00
3626;DHT22;1827;50.534;8.316;2024-01-07T15:01:16;-1.00;1.00
3626;DHT22;1827;50.534;8.316;2024-01-07T15:03:42;-0.90;1.00
3626;DHT22;1827;50.534;8.316;2024-01-07T15:06:07;-1.00;1.00
3626;DHT22;1827;50.534;8.316;2024-01-07T15:08:34;-1.00;1.00
3626;DHT22;1827;50.534;8.316;2024-01-07T15:11:00;-0.90;1.00
3626;DHT22;1827;50.534;8.316;2024-01-07T15:13:26;-0.90;1.00
3626;DHT22;1827;50.534;8.316;2024-01-07T15:15:52;-0.90;1.00
3626;DHT22;1827;50.534;8.316;2024-01-07T15:18:18;-1.00;1.00
3626;DHT22;1827;50.534;8.316;2024-01-07T15:20:44;-1.00;1.00
3626;DHT22;1827;50.534;8.316;2024-01-07T15:23:09;-1.00;1.00
3626;DHT22;1827;50.534;8.316;2024-01-07T15:25:35;-1.00;1.00
3626;DHT22;1827;50.534;8.316;2024-01-07T15:28:00;-1.00;1.00
3626;DHT22;1827;50.534;8.316;2024-01-07T15:30:26;-1.10;1.00
3626;DHT22;1827;50.534;8.316;2024-01-07T15:32:53;-1.10;1.00
3626;DHT22;1827;50.534;8.316;2024-01-07T15:35:18;-1.10;1.00
3626;DHT22;1827;50.534;8.316;2024-01-07T15:37:44;-1.20;1.00
3626;DHT22;1827;50.534;8.316;2024-01-07T15:40:10;-1.30;1.00
3626;DHT22;1827;50.534;8.316;2024-01-07T15:42:35;-1.30;1.00
3626;DHT22;1827;50.534;8.316;2024-01-07T15:45:01;-1.30;1.00
3626;DHT22;1827;50.534;8.316;2024-01-07T15:47:27;-1.30;1.00
3626;DHT22;1827;50.534;8.316;2024-01-07T15:49:53;-1.30;1.00
3626;DHT22;1827;50.534;8.316;2024-01-07T15:52:18;-1.40;1.00
3626;DHT22;1827;50.534;8.316;2024-01-07T15:54:44;-1.40;1.00
3626;DHT22;1827;50.534;8.316;2024-01-07T15:57:10;-1.40;1.00
3626;DHT22;1827;50.534;8.316;2024-01-07T15:59:35;-1.40;1.00
3626;DHT22;1827;50.534;8.316;2024-01-07T16:02:05;-1.40;1.00
3626;DHT22;1827;50.534;8.316;2024-01-07T16:04:30;-1.40;1.00
3626;DHT22;1827;50.534;8.316;2024-01-07T16:06:56;-1.40;1.00
3626;DHT22;1827;50.534;8.316;2024-01-07T16:09:22;-1.40;1.00
3626;DHT22;1827;50.534;8.316;2024-01-07T16:11:48;-1.40;1.00
3626;DHT22;1827;50.534;8.316;2024-01-07T16:14:14;-1.40;1.00
3626;DHT22;1827;50.534;8.316;2024-01-07T16:16:42;-1.50;1.00
3626;DHT22;1827;50.534;8.316;2024-01-07T16:19:08;-1.50;1.00
3626;DHT22;1827;50.534;8.316;2024-01-07T16:21:36;-1.50;1.00
3626;DHT22;1827;50.534;8.316;2024-01-07T16:24:02;-1.50;1.00